createdAt,value
2017-02-03T00:00:16.588Z,17.31
2017-02-03T00:00:49.316Z,17.25
2017-02-03T00:01:22.049Z,17.22
2017-02-03T00:01:54.789Z,17.35
2017-02-03T00:02:27.522Z,17.28
2017-02-03T00:03:00.290Z,17.28
2017-02-03T00:03:33.019Z,17.27
2017-02-03T00:04:05.750Z,17.31
2017-02-03T00:04:38.505Z,17.35
2017-02-03T00:05:11.240Z,17.3
2017-02-03T00:05:43.962Z,17.35
2017-02-03T00:06:16.723Z,17.3
2017-02-03T00:06:49.440Z,17.31
2017-02-03T00:07:22.195Z,17.24
2017-02-03T00:07:54.919Z,17.3
2017-02-03T00:08:27.646Z,17.25
2017-02-03T00:09:00.375Z,17.31
2017-02-03T00:09:33.097Z,17.25
2017-02-03T00:10:05.840Z,17.27
2017-02-03T00:10:38.579Z,17.28
2017-02-03T00:11:11.311Z,17.31
2017-02-03T00:11:44.039Z,17.28
2017-02-03T00:12:16.773Z,17.3
2017-02-03T00:12:49.483Z,17.28
2017-02-03T00:13:22.213Z,17.3
2017-02-03T00:13:54.930Z,17.36
2017-02-03T00:14:27.660Z,17.32
2017-02-03T00:15:00.386Z,17.3
2017-02-03T00:15:33.103Z,17.3
2017-02-03T00:16:05.830Z,17.28
2017-02-03T00:16:38.552Z,17.25
2017-02-03T00:17:11.286Z,17.31
2017-02-03T00:17:44.023Z,17.31
2017-02-03T00:18:16.741Z,17.31
2017-02-03T00:18:49.491Z,17.35
2017-02-03T00:19:22.281Z,17.36
2017-02-03T00:19:55.016Z,17.3
2017-02-03T00:20:27.757Z,17.32
2017-02-03T00:21:00.487Z,17.24
2017-02-03T00:21:33.209Z,17.31
2017-02-03T00:22:05.944Z,17.3
2017-02-03T00:22:38.665Z,17.27
2017-02-03T00:23:11.378Z,17.3
2017-02-03T00:23:44.109Z,17.3
2017-02-03T00:24:16.849Z,17.3
2017-02-03T00:24:49.595Z,17.27
2017-02-03T00:25:22.316Z,17.3
2017-02-03T00:25:55.033Z,17.35
2017-02-03T00:26:27.753Z,17.28
2017-02-03T00:27:00.485Z,17.3
2017-02-03T00:27:33.240Z,17.22
2017-02-03T00:28:05.972Z,17.38
2017-02-03T00:28:38.717Z,17.3
2017-02-03T00:29:11.503Z,17.31
2017-02-03T00:29:44.274Z,17.32
2017-02-03T00:30:16.988Z,17.28
2017-02-03T00:30:49.710Z,17.32
2017-02-03T00:31:22.439Z,17.36
2017-02-03T00:31:55.145Z,17.31
2017-02-03T00:32:27.865Z,17.28
2017-02-03T00:33:00.587Z,17.28
2017-02-03T00:33:33.340Z,17.28
2017-02-03T00:34:06.055Z,17.32
2017-02-03T00:34:38.805Z,17.3
2017-02-03T00:35:11.541Z,17.31
2017-02-03T00:35:44.274Z,17.31
2017-02-03T00:36:17.019Z,17.36
2017-02-03T00:36:49.760Z,17.27
2017-02-03T00:37:22.484Z,17.25
2017-02-03T00:37:55.210Z,17.3
2017-02-03T00:38:27.945Z,17.3
2017-02-03T00:39:00.685Z,17.31
2017-02-03T00:39:33.418Z,17.28
2017-02-03T00:40:06.143Z,17.27
2017-02-03T00:40:38.889Z,17.27
2017-02-03T00:41:11.628Z,17.3
2017-02-03T00:41:44.365Z,17.31
2017-02-03T00:42:17.102Z,17.3
2017-02-03T00:42:49.831Z,17.3
2017-02-03T00:43:22.568Z,17.3
2017-02-03T00:43:55.303Z,17.3
2017-02-03T00:44:28.034Z,17.3
2017-02-03T00:45:00.803Z,17.3
2017-02-03T00:45:33.574Z,17.28
2017-02-03T00:46:06.306Z,17.25
2017-02-03T00:46:39.043Z,17.3
2017-02-03T00:47:11.780Z,17.31
2017-02-03T00:47:44.508Z,17.35
2017-02-03T00:48:17.250Z,17.35
2017-02-03T00:48:49.994Z,17.32
2017-02-03T00:49:22.728Z,17.32
2017-02-03T00:49:55.469Z,17.32
2017-02-03T00:50:28.226Z,17.32
2017-02-03T00:51:00.986Z,17.25
2017-02-03T00:51:33.721Z,17.31
2017-02-03T00:52:06.442Z,17.27
2017-02-03T00:52:39.166Z,17.31
2017-02-03T00:53:11.901Z,17.27
2017-02-03T00:53:44.630Z,17.39
2017-02-03T00:54:17.387Z,17.27
2017-02-03T00:54:50.119Z,17.25
2017-02-03T00:55:22.856Z,17.3
2017-02-03T00:55:55.575Z,17.31
2017-02-03T00:56:28.319Z,17.32
2017-02-03T00:57:01.053Z,17.38
2017-02-03T00:57:33.775Z,17.32
2017-02-03T00:58:06.493Z,17.3
2017-02-03T00:58:39.234Z,17.3
2017-02-03T00:59:11.970Z,17.32
2017-02-03T00:59:44.713Z,17.28
2017-02-03T01:00:17.448Z,17.32
2017-02-03T01:00:50.176Z,17.27
2017-02-03T01:01:22.908Z,17.35
2017-02-03T01:01:55.631Z,17.32
2017-02-03T01:02:28.365Z,17.32
2017-02-03T01:03:01.104Z,17.31
2017-02-03T01:03:33.845Z,17.32
2017-02-03T01:04:06.565Z,17.3
2017-02-03T01:04:39.288Z,17.32
2017-02-03T01:05:12.009Z,17.36
2017-02-03T01:05:44.740Z,17.31
2017-02-03T01:06:17.459Z,17.28
2017-02-03T01:06:50.188Z,17.35
2017-02-03T01:07:22.919Z,17.28
2017-02-03T01:07:55.630Z,17.35
2017-02-03T01:08:28.355Z,17.39
2017-02-03T01:09:01.073Z,17.27
2017-02-03T01:09:33.817Z,17.3
2017-02-03T01:10:06.585Z,17.39
2017-02-03T01:10:39.333Z,17.35
2017-02-03T01:11:12.066Z,17.31
2017-02-03T01:11:44.797Z,17.31
2017-02-03T01:12:17.529Z,17.3
2017-02-03T01:12:50.296Z,17.3
2017-02-03T01:13:23.015Z,17.27
2017-02-03T01:13:55.744Z,17.32
2017-02-03T01:14:28.471Z,17.32
2017-02-03T01:15:01.200Z,17.35
2017-02-03T01:15:33.946Z,17.3
2017-02-03T01:16:06.707Z,17.35
2017-02-03T01:16:39.448Z,17.32
2017-02-03T01:17:12.192Z,17.28
2017-02-03T01:17:44.953Z,17.32
2017-02-03T01:18:17.666Z,17.36
2017-02-03T01:18:50.385Z,17.3
2017-02-03T01:19:23.134Z,17.32
2017-02-03T01:19:55.867Z,17.35
2017-02-03T01:20:28.609Z,17.31
2017-02-03T01:21:01.350Z,17.32
2017-02-03T01:21:34.097Z,17.35
2017-02-03T01:22:06.837Z,17.35
2017-02-03T01:22:39.577Z,17.31
2017-02-03T01:23:12.315Z,17.32
2017-02-03T01:23:45.074Z,17.24
2017-02-03T01:24:17.793Z,17.28
2017-02-03T01:24:50.525Z,17.35
2017-02-03T01:25:23.261Z,17.27
2017-02-03T01:25:55.994Z,17.3
2017-02-03T01:26:28.736Z,17.27
2017-02-03T01:27:01.495Z,17.32
2017-02-03T01:27:34.234Z,17.31
2017-02-03T01:28:06.971Z,17.38
2017-02-03T01:28:39.694Z,17.35
2017-02-03T01:29:12.420Z,17.32
2017-02-03T01:29:45.150Z,17.3
2017-02-03T01:30:17.875Z,17.38
2017-02-03T01:30:50.597Z,17.31
2017-02-03T01:31:23.339Z,17.36
2017-02-03T01:31:56.084Z,17.35
2017-02-03T01:32:28.916Z,17.32
2017-02-03T01:33:01.647Z,17.3
2017-02-03T01:33:34.414Z,17.32
2017-02-03T01:34:07.130Z,17.31
2017-02-03T01:34:39.859Z,17.32
2017-02-03T01:35:12.575Z,17.36
2017-02-03T01:35:45.329Z,17.35
2017-02-03T01:36:18.045Z,17.36
2017-02-03T01:36:50.755Z,17.35
2017-02-03T01:37:23.490Z,17.31
2017-02-03T01:37:56.219Z,17.31
2017-02-03T01:38:28.947Z,17.3
2017-02-03T01:39:01.669Z,17.36
2017-02-03T01:39:34.398Z,17.38
2017-02-03T01:40:07.123Z,17.31
2017-02-03T01:40:39.863Z,17.28
2017-02-03T01:41:12.593Z,17.38
2017-02-03T01:41:45.335Z,17.32
2017-02-03T01:42:18.088Z,17.3
2017-02-03T01:42:51.752Z,17.28
2017-02-03T01:43:24.476Z,17.31
2017-02-03T01:43:57.199Z,17.31
2017-02-03T01:44:29.921Z,17.36
2017-02-03T01:45:02.658Z,17.27
2017-02-03T01:45:35.388Z,17.36
2017-02-03T01:46:08.126Z,17.3
2017-02-03T01:46:40.867Z,17.32
2017-02-03T01:47:13.595Z,17.35
2017-02-03T01:47:46.326Z,17.32
2017-02-03T01:48:19.055Z,17.36
2017-02-03T01:48:51.784Z,17.3
2017-02-03T01:49:24.507Z,17.3
2017-02-03T01:49:57.250Z,17.39
2017-02-03T01:50:29.972Z,17.32
2017-02-03T01:51:02.694Z,17.28
2017-02-03T01:51:35.420Z,17.35
2017-02-03T01:52:08.164Z,17.3
2017-02-03T01:52:40.914Z,17.31
2017-02-03T01:53:13.670Z,17.3
2017-02-03T01:53:46.416Z,17.28
2017-02-03T01:54:19.145Z,17.4
2017-02-03T01:54:51.857Z,17.35
2017-02-03T01:55:24.617Z,17.36
2017-02-03T01:55:57.345Z,17.31
2017-02-03T01:56:30.104Z,17.25
2017-02-03T01:57:02.828Z,17.36
2017-02-03T01:57:35.550Z,17.28
2017-02-03T01:58:08.272Z,17.38
2017-02-03T01:58:40.993Z,17.35
2017-02-03T01:59:13.713Z,17.39
2017-02-03T01:59:46.457Z,17.42
2017-02-03T02:00:19.190Z,17.32
2017-02-03T02:00:51.900Z,17.35
2017-02-03T02:01:24.645Z,17.35
2017-02-03T02:01:57.368Z,17.36
2017-02-03T02:02:30.086Z,17.32
2017-02-03T02:03:02.828Z,17.35
2017-02-03T02:03:35.560Z,17.25
2017-02-03T02:04:08.276Z,17.35
2017-02-03T02:04:40.998Z,17.28
2017-02-03T02:05:13.720Z,17.39
2017-02-03T02:05:46.457Z,17.39
2017-02-03T02:06:19.185Z,17.32
2017-02-03T02:06:51.905Z,17.31
2017-02-03T02:07:24.652Z,17.35
2017-02-03T02:07:57.406Z,17.35
2017-02-03T02:08:30.138Z,17.38
2017-02-03T02:09:02.862Z,17.4
2017-02-03T02:09:35.602Z,17.42
2017-02-03T02:10:08.333Z,17.28
2017-02-03T02:10:41.072Z,17.42
2017-02-03T02:11:13.811Z,17.38
2017-02-03T02:11:46.553Z,17.39
2017-02-03T02:12:19.323Z,17.35
2017-02-03T02:12:52.049Z,17.36
2017-02-03T02:13:24.760Z,17.32
2017-02-03T02:13:57.496Z,17.42
2017-02-03T02:14:30.226Z,17.32
2017-02-03T02:15:02.961Z,17.3
2017-02-03T02:15:35.698Z,17.42
2017-02-03T02:16:08.466Z,17.31
2017-02-03T02:16:41.234Z,17.42
2017-02-03T02:17:13.963Z,17.4
2017-02-03T02:17:46.688Z,17.38
2017-02-03T02:18:19.421Z,17.43
2017-02-03T02:18:52.139Z,17.36
2017-02-03T02:19:24.873Z,17.28
2017-02-03T02:19:57.601Z,17.35
2017-02-03T02:20:30.337Z,17.39
2017-02-03T02:21:03.068Z,17.28
2017-02-03T02:21:35.798Z,17.28
2017-02-03T02:22:08.537Z,17.45
2017-02-03T02:22:41.253Z,17.39
2017-02-03T02:23:13.982Z,17.45
2017-02-03T02:23:46.753Z,17.43
2017-02-03T02:24:19.479Z,17.38
2017-02-03T02:24:52.201Z,17.38
2017-02-03T02:25:24.930Z,17.43
2017-02-03T02:25:57.671Z,17.42
2017-02-03T02:26:30.412Z,17.35
2017-02-03T02:27:03.142Z,17.38
2017-02-03T02:27:35.882Z,17.32
2017-02-03T02:28:08.626Z,17.42
2017-02-03T02:28:41.384Z,17.32
2017-02-03T02:29:14.107Z,17.38
2017-02-03T02:29:46.847Z,17.4
2017-02-03T02:30:20.284Z,17.42
2017-02-03T02:30:53.026Z,17.36
2017-02-03T02:31:25.746Z,17.39
2017-02-03T02:31:58.497Z,17.42
2017-02-03T02:32:31.234Z,17.42
2017-02-03T02:33:03.968Z,17.36
2017-02-03T02:33:36.702Z,17.42
2017-02-03T02:34:09.431Z,17.32
2017-02-03T02:34:42.178Z,17.45
2017-02-03T02:35:14.912Z,17.36
2017-02-03T02:35:47.635Z,17.42
2017-02-03T02:36:20.361Z,17.42
2017-02-03T02:36:53.086Z,17.42
2017-02-03T02:37:25.819Z,17.36
2017-02-03T02:37:58.555Z,17.42
2017-02-03T02:38:31.288Z,17.45
2017-02-03T02:39:04.011Z,17.39
2017-02-03T02:39:36.742Z,17.39
2017-02-03T02:40:09.480Z,17.39
2017-02-03T02:40:42.210Z,17.42
2017-02-03T02:41:14.921Z,17.45
2017-02-03T02:41:47.680Z,17.45
2017-02-03T02:42:20.413Z,17.43
2017-02-03T02:42:53.151Z,17.35
2017-02-03T02:43:25.904Z,17.39
2017-02-03T02:43:58.633Z,17.49
2017-02-03T02:44:31.363Z,17.43
2017-02-03T02:45:04.094Z,17.42
2017-02-03T02:45:36.822Z,17.38
2017-02-03T02:46:09.566Z,17.43
2017-02-03T02:46:42.312Z,17.4
2017-02-03T02:47:15.094Z,17.35
2017-02-03T02:47:47.874Z,17.38
2017-02-03T02:48:20.618Z,17.42
2017-02-03T02:48:53.344Z,17.38
2017-02-03T02:49:26.063Z,17.39
2017-02-03T02:49:58.794Z,17.38
2017-02-03T02:50:31.519Z,17.35
2017-02-03T02:51:04.256Z,17.42
2017-02-03T02:51:36.987Z,17.39
2017-02-03T02:52:09.702Z,17.45
2017-02-03T02:52:42.425Z,17.39
2017-02-03T02:53:15.167Z,17.45
2017-02-03T02:53:47.894Z,17.46
2017-02-03T02:54:20.613Z,17.45
2017-02-03T02:54:53.368Z,17.45
2017-02-03T02:55:26.092Z,17.42
2017-02-03T02:55:58.826Z,17.42
2017-02-03T02:56:31.568Z,17.4
2017-02-03T02:57:04.297Z,17.42
2017-02-03T02:57:37.024Z,17.47
2017-02-03T02:58:09.753Z,17.39
2017-02-03T02:58:42.522Z,17.39
2017-02-03T02:59:15.249Z,17.42
2017-02-03T02:59:48.015Z,17.39
2017-02-03T03:00:20.728Z,17.4
2017-02-03T03:00:53.451Z,17.46
2017-02-03T03:01:26.180Z,17.45
2017-02-03T03:01:58.910Z,17.43
2017-02-03T03:02:31.650Z,17.39
2017-02-03T03:03:04.378Z,17.45
2017-02-03T03:03:37.126Z,17.4
2017-02-03T03:04:09.845Z,17.45
2017-02-03T03:04:42.573Z,17.36
2017-02-03T03:05:15.310Z,17.35
2017-02-03T03:05:48.049Z,17.38
2017-02-03T03:06:20.786Z,17.4
2017-02-03T03:06:53.512Z,17.3
2017-02-03T03:07:26.273Z,17.35
2017-02-03T03:07:59.026Z,17.45
2017-02-03T03:08:31.778Z,17.4
2017-02-03T03:09:04.515Z,17.36
2017-02-03T03:09:37.244Z,17.35
2017-02-03T03:10:09.971Z,17.31
2017-02-03T03:10:42.711Z,17.45
2017-02-03T03:11:15.436Z,17.38
2017-02-03T03:11:48.173Z,17.42
2017-02-03T03:12:20.932Z,17.32
2017-02-03T03:12:53.671Z,17.31
2017-02-03T03:13:26.408Z,17.36
2017-02-03T03:13:59.150Z,17.36
2017-02-03T03:14:31.857Z,17.47
2017-02-03T03:15:04.578Z,17.36
2017-02-03T03:15:37.341Z,17.32
2017-02-03T03:16:10.066Z,17.47
2017-02-03T03:16:42.804Z,17.36
2017-02-03T03:17:15.542Z,17.31
2017-02-03T03:17:48.278Z,17.45
2017-02-03T03:18:21.024Z,17.39
2017-02-03T03:18:53.746Z,17.38
2017-02-03T03:19:26.499Z,17.46
2017-02-03T03:19:59.232Z,17.35
2017-02-03T03:20:31.967Z,17.4
2017-02-03T03:21:04.688Z,17.36
2017-02-03T03:21:37.414Z,17.35
2017-02-03T03:22:10.161Z,17.39
2017-02-03T03:22:42.901Z,17.47
2017-02-03T03:23:15.622Z,17.39
2017-02-03T03:23:48.342Z,17.35
2017-02-03T03:24:21.083Z,17.43
2017-02-03T03:24:53.824Z,17.4
2017-02-03T03:25:26.537Z,17.45
2017-02-03T03:25:59.277Z,17.32
2017-02-03T03:26:32.034Z,17.32
2017-02-03T03:27:04.762Z,17.28
2017-02-03T03:27:37.503Z,17.38
2017-02-03T03:28:10.232Z,17.36
2017-02-03T03:28:42.970Z,17.45
2017-02-03T03:29:15.699Z,17.32
2017-02-03T03:29:48.435Z,17.39
2017-02-03T03:30:21.160Z,17.32
2017-02-03T03:30:53.885Z,17.36
2017-02-03T03:31:26.606Z,17.42
2017-02-03T03:31:59.337Z,17.36
2017-02-03T03:32:32.073Z,17.39
2017-02-03T03:33:04.793Z,17.45
2017-02-03T03:33:37.533Z,17.42
2017-02-03T03:34:10.271Z,17.35
2017-02-03T03:34:42.997Z,17.43
2017-02-03T03:35:15.740Z,17.35
2017-02-03T03:35:48.477Z,17.42
2017-02-03T03:36:21.216Z,17.49
2017-02-03T03:36:53.943Z,17.4
2017-02-03T03:37:26.682Z,17.32
2017-02-03T03:37:59.435Z,17.38
2017-02-03T03:38:32.186Z,17.32
2017-02-03T03:39:04.926Z,17.38
2017-02-03T03:39:37.664Z,17.36
2017-02-03T03:40:10.389Z,17.38
2017-02-03T03:40:43.117Z,17.36
2017-02-03T03:41:15.850Z,17.42
2017-02-03T03:41:48.594Z,17.32
2017-02-03T03:42:21.315Z,17.4
2017-02-03T03:42:54.052Z,17.39
2017-02-03T03:43:26.802Z,17.46
2017-02-03T03:43:59.546Z,17.38
2017-02-03T03:44:32.284Z,17.46
2017-02-03T03:45:05.009Z,17.36
2017-02-03T03:45:37.739Z,17.45
2017-02-03T03:46:10.483Z,17.45
2017-02-03T03:46:43.211Z,17.36
2017-02-03T03:47:15.955Z,17.4
2017-02-03T03:47:48.699Z,17.46
2017-02-03T03:48:21.456Z,17.32
2017-02-03T03:48:54.200Z,17.39
2017-02-03T03:49:26.939Z,17.46
2017-02-03T03:49:59.686Z,17.4
2017-02-03T03:50:32.419Z,17.39
2017-02-03T03:51:05.170Z,17.4
2017-02-03T03:51:37.942Z,17.4
2017-02-03T03:52:10.682Z,17.38
2017-02-03T03:52:43.450Z,17.31
2017-02-03T03:53:16.187Z,17.39
2017-02-03T03:53:48.919Z,17.49
2017-02-03T03:54:21.655Z,17.4
2017-02-03T03:54:54.393Z,17.42
2017-02-03T03:55:27.124Z,17.38
2017-02-03T03:55:59.865Z,17.39
2017-02-03T03:56:32.612Z,17.39
2017-02-03T03:57:05.354Z,17.42
2017-02-03T03:57:38.104Z,17.39
2017-02-03T03:58:10.845Z,17.31
2017-02-03T03:58:43.574Z,17.32
2017-02-03T03:59:16.309Z,17.39
2017-02-03T03:59:49.041Z,17.4
2017-02-03T04:00:21.772Z,17.32
2017-02-03T04:00:54.543Z,17.39
2017-02-03T04:01:27.295Z,17.49
2017-02-03T04:02:00.049Z,17.42
2017-02-03T04:02:32.785Z,17.4
2017-02-03T04:03:05.515Z,17.36
2017-02-03T04:03:38.255Z,17.43
2017-02-03T04:04:10.986Z,17.42
2017-02-03T04:04:43.704Z,17.43
2017-02-03T04:05:16.451Z,17.4
2017-02-03T04:05:49.192Z,17.42
2017-02-03T04:06:21.926Z,17.42
2017-02-03T04:06:54.680Z,17.43
2017-02-03T04:07:27.437Z,17.43
2017-02-03T04:08:00.187Z,17.31
2017-02-03T04:08:32.922Z,17.45
2017-02-03T04:09:05.703Z,17.38
2017-02-03T04:09:38.441Z,17.43
2017-02-03T04:10:11.170Z,17.39
2017-02-03T04:10:43.883Z,17.45
2017-02-03T04:11:16.616Z,17.43
2017-02-03T04:11:49.347Z,17.4
2017-02-03T04:12:23.254Z,17.43
2017-02-03T04:12:56.008Z,17.45
2017-02-03T04:13:28.724Z,17.46
2017-02-03T04:14:01.453Z,17.47
2017-02-03T04:14:34.204Z,17.45
2017-02-03T04:15:06.923Z,17.42
2017-02-03T04:15:39.662Z,17.46
2017-02-03T04:16:12.412Z,17.32
2017-02-03T04:16:45.154Z,17.47
2017-02-03T04:17:17.913Z,17.38
2017-02-03T04:17:50.643Z,17.31
2017-02-03T04:18:23.363Z,17.38
2017-02-03T04:18:56.103Z,17.43
2017-02-03T04:19:28.836Z,17.46
2017-02-03T04:20:01.584Z,17.45
2017-02-03T04:20:34.322Z,17.46
2017-02-03T04:21:07.079Z,17.32
2017-02-03T04:21:39.805Z,17.45
2017-02-03T04:22:12.570Z,17.47
2017-02-03T04:22:45.303Z,17.5
2017-02-03T04:23:18.033Z,17.45
2017-02-03T04:23:50.751Z,17.47
2017-02-03T04:24:23.497Z,17.49
2017-02-03T04:24:56.207Z,17.46
2017-02-03T04:25:28.927Z,17.47
2017-02-03T04:26:01.659Z,17.49
2017-02-03T04:26:34.403Z,17.47
2017-02-03T04:27:07.137Z,17.46
2017-02-03T04:27:39.879Z,17.46
2017-02-03T04:28:12.605Z,17.47
2017-02-03T04:28:45.354Z,17.49
2017-02-03T04:29:18.071Z,17.5
2017-02-03T04:29:50.805Z,17.46
2017-02-03T04:30:23.539Z,17.46
2017-02-03T04:30:56.296Z,17.4
2017-02-03T04:31:29.042Z,17.43
2017-02-03T04:32:01.774Z,17.47
2017-02-03T04:32:34.520Z,17.43
2017-02-03T04:33:07.271Z,17.45
2017-02-03T04:33:40.004Z,17.38
2017-02-03T04:34:12.737Z,17.46
2017-02-03T04:34:45.476Z,17.42
2017-02-03T04:35:18.217Z,17.49
2017-02-03T04:35:50.951Z,17.45
2017-02-03T04:36:23.691Z,17.46
2017-02-03T04:36:56.448Z,17.5
2017-02-03T04:37:29.182Z,17.5
2017-02-03T04:38:01.918Z,17.39
2017-02-03T04:38:34.655Z,17.5
2017-02-03T04:39:07.418Z,17.49
2017-02-03T04:39:40.136Z,17.42
2017-02-03T04:40:12.863Z,17.38
2017-02-03T04:40:45.592Z,17.47
2017-02-03T04:41:18.340Z,17.46
2017-02-03T04:41:51.053Z,17.46
2017-02-03T04:42:23.783Z,17.38
2017-02-03T04:42:56.555Z,17.5
2017-02-03T04:43:29.287Z,17.47
2017-02-03T04:44:02.011Z,17.43
2017-02-03T04:44:34.761Z,17.46
2017-02-03T04:45:07.494Z,17.38
2017-02-03T04:45:40.220Z,17.45
2017-02-03T04:46:12.964Z,17.4
2017-02-03T04:46:45.702Z,17.46
2017-02-03T04:47:18.434Z,17.42
2017-02-03T04:47:51.164Z,17.4
2017-02-03T04:48:23.917Z,17.39
2017-02-03T04:48:56.644Z,17.47
2017-02-03T04:49:29.359Z,17.52
2017-02-03T04:50:02.083Z,17.43
2017-02-03T04:50:34.813Z,17.52
2017-02-03T04:51:07.537Z,17.45
2017-02-03T04:51:40.263Z,17.4
2017-02-03T04:52:12.989Z,17.47
2017-02-03T04:52:45.707Z,17.4
2017-02-03T04:53:18.486Z,17.39
2017-02-03T04:53:51.227Z,17.54
2017-02-03T04:54:23.982Z,17.31
2017-02-03T04:54:56.741Z,17.46
2017-02-03T04:55:29.468Z,17.49
2017-02-03T04:56:02.191Z,17.45
2017-02-03T04:56:34.950Z,17.39
2017-02-03T04:57:07.688Z,17.46
2017-02-03T04:57:40.426Z,17.4
2017-02-03T04:58:13.164Z,17.46
2017-02-03T04:58:45.898Z,17.5
2017-02-03T04:59:18.614Z,17.6
2017-02-03T04:59:51.348Z,17.49
2017-02-03T05:00:24.123Z,17.45
2017-02-03T05:00:56.861Z,17.5
2017-02-03T05:01:29.573Z,17.42
2017-02-03T05:02:02.316Z,17.5
2017-02-03T05:02:35.046Z,17.45
2017-02-03T05:03:07.780Z,17.42
2017-02-03T05:03:40.506Z,17.54
2017-02-03T05:04:13.252Z,17.55
2017-02-03T05:04:45.985Z,17.45
2017-02-03T05:05:18.701Z,17.45
2017-02-03T05:05:51.426Z,17.4
2017-02-03T05:06:24.143Z,17.47
2017-02-03T05:06:56.877Z,17.58
2017-02-03T05:07:29.617Z,17.5
2017-02-03T05:08:02.365Z,17.6
2017-02-03T05:08:35.104Z,17.55
2017-02-03T05:09:07.833Z,17.43
2017-02-03T05:09:40.550Z,17.55
2017-02-03T05:10:13.275Z,17.4
2017-02-03T05:10:46.000Z,17.46
2017-02-03T05:11:18.724Z,17.4
2017-02-03T05:11:51.468Z,17.47
2017-02-03T05:12:24.202Z,17.47
2017-02-03T05:12:56.933Z,17.54
2017-02-03T05:13:29.669Z,17.5
2017-02-03T05:14:02.395Z,17.42
2017-02-03T05:14:35.151Z,17.57
2017-02-03T05:15:07.868Z,17.5
2017-02-03T05:15:40.604Z,17.42
2017-02-03T05:16:13.319Z,17.45
2017-02-03T05:16:46.040Z,17.45
2017-02-03T05:17:18.776Z,17.54
2017-02-03T05:17:51.516Z,17.5
2017-02-03T05:18:24.234Z,17.42
2017-02-03T05:18:56.967Z,17.43
2017-02-03T05:19:29.700Z,17.49
2017-02-03T05:20:02.426Z,17.54
2017-02-03T05:20:35.189Z,17.45
2017-02-03T05:21:07.929Z,17.46
2017-02-03T05:21:40.675Z,17.49
2017-02-03T05:22:13.412Z,17.54
2017-02-03T05:22:46.155Z,17.52
2017-02-03T05:23:18.896Z,17.5
2017-02-03T05:23:51.632Z,17.5
2017-02-03T05:24:24.351Z,17.45
2017-02-03T05:24:57.076Z,17.55
2017-02-03T05:25:29.808Z,17.5
2017-02-03T05:26:02.558Z,17.5
2017-02-03T05:26:35.301Z,17.43
2017-02-03T05:27:08.025Z,17.47
2017-02-03T05:27:40.765Z,17.52
2017-02-03T05:28:13.503Z,17.47
2017-02-03T05:28:46.241Z,17.58
2017-02-03T05:29:18.969Z,17.54
2017-02-03T05:29:51.705Z,17.58
2017-02-03T05:30:24.431Z,17.52
2017-02-03T05:30:57.168Z,17.5
2017-02-03T05:31:29.883Z,17.5
2017-02-03T05:32:02.608Z,17.5
2017-02-03T05:32:35.334Z,17.54
2017-02-03T05:33:08.060Z,17.55
2017-02-03T05:33:40.792Z,17.54
2017-02-03T05:34:13.543Z,17.54
2017-02-03T05:34:46.263Z,17.55
2017-02-03T05:35:18.982Z,17.47
2017-02-03T05:35:51.706Z,17.57
2017-02-03T05:36:24.455Z,17.55
2017-02-03T05:36:57.181Z,17.55
2017-02-03T05:37:29.908Z,17.5
2017-02-03T05:38:02.631Z,17.47
2017-02-03T05:38:35.356Z,17.5
2017-02-03T05:39:08.086Z,17.62
2017-02-03T05:39:40.805Z,17.5
2017-02-03T05:40:13.530Z,17.45
2017-02-03T05:40:46.276Z,17.58
2017-02-03T05:41:18.998Z,17.55
2017-02-03T05:41:51.727Z,17.49
2017-02-03T05:42:24.470Z,17.58
2017-02-03T05:42:57.201Z,17.55
2017-02-03T05:43:29.931Z,17.6
2017-02-03T05:44:02.655Z,17.54
2017-02-03T05:44:35.407Z,17.5
2017-02-03T05:45:08.133Z,17.54
2017-02-03T05:45:40.862Z,17.46
2017-02-03T05:46:13.585Z,17.5
2017-02-03T05:46:46.315Z,17.54
2017-02-03T05:47:19.045Z,17.52
2017-02-03T05:47:51.785Z,17.5
2017-02-03T05:48:24.524Z,17.5
2017-02-03T05:48:57.282Z,17.5
2017-02-03T05:49:30.010Z,17.52
2017-02-03T05:50:02.765Z,17.45
2017-02-03T05:50:35.517Z,17.52
2017-02-03T05:51:08.251Z,17.5
2017-02-03T05:51:40.990Z,17.57
2017-02-03T05:52:13.732Z,17.43
2017-02-03T05:52:46.468Z,17.58
2017-02-03T05:53:19.189Z,17.57
2017-02-03T05:53:51.926Z,17.52
2017-02-03T05:54:24.665Z,17.46
2017-02-03T05:54:57.392Z,17.54
2017-02-03T05:55:30.120Z,17.46
2017-02-03T05:56:02.854Z,17.45
2017-02-03T05:56:35.595Z,17.49
2017-02-03T05:57:08.365Z,17.54
2017-02-03T05:57:41.091Z,17.52
2017-02-03T05:58:13.818Z,17.52
2017-02-03T05:58:46.555Z,17.52
2017-02-03T05:59:19.281Z,17.57
2017-02-03T05:59:52.027Z,17.54
2017-02-03T06:00:24.771Z,17.57
2017-02-03T06:00:57.507Z,17.55
2017-02-03T06:01:30.238Z,17.52
2017-02-03T06:02:02.960Z,17.54
2017-02-03T06:02:35.680Z,17.46
2017-02-03T06:03:08.402Z,17.55
2017-02-03T06:03:41.147Z,17.52
2017-02-03T06:04:13.873Z,17.54
2017-02-03T06:04:46.602Z,17.52
2017-02-03T06:05:19.341Z,17.46
2017-02-03T06:05:52.074Z,17.52
2017-02-03T06:06:24.786Z,17.49
2017-02-03T06:06:57.543Z,17.58
2017-02-03T06:07:30.281Z,17.52
2017-02-03T06:08:03.001Z,17.55
2017-02-03T06:08:35.724Z,17.45
2017-02-03T06:09:08.481Z,17.49
2017-02-03T06:09:41.195Z,17.55
2017-02-03T06:10:13.928Z,17.52
2017-02-03T06:10:46.678Z,17.46
2017-02-03T06:11:19.415Z,17.58
2017-02-03T06:11:52.182Z,17.55
2017-02-03T06:12:24.917Z,17.49
2017-02-03T06:12:57.650Z,17.58
2017-02-03T06:13:30.412Z,17.52
2017-02-03T06:14:03.135Z,17.57
2017-02-03T06:14:35.871Z,17.57
2017-02-03T06:15:08.596Z,17.55
2017-02-03T06:15:41.339Z,17.52
2017-02-03T06:16:14.057Z,17.54
2017-02-03T06:16:46.786Z,17.57
2017-02-03T06:17:19.584Z,17.47
2017-02-03T06:17:52.341Z,17.55
2017-02-03T06:18:25.446Z,17.57
2017-02-03T06:19:00.025Z,17.55
2017-02-03T06:19:32.769Z,17.54
2017-02-03T06:20:05.493Z,17.49
2017-02-03T06:20:38.219Z,17.47
2017-02-03T06:21:11.725Z,17.52
2017-02-03T06:21:46.401Z,17.6
2017-02-03T06:22:19.734Z,17.57
2017-02-03T06:22:54.111Z,17.57
2017-02-03T06:23:27.439Z,17.46
2017-02-03T06:24:00.154Z,17.52
2017-02-03T06:24:32.885Z,17.52
2017-02-03T06:25:05.819Z,17.55
2017-02-03T06:25:39.564Z,17.49
2017-02-03T06:26:12.663Z,17.6
2017-02-03T06:26:46.399Z,17.5
2017-02-03T06:27:19.195Z,17.52
2017-02-03T06:27:53.225Z,17.42
2017-02-03T06:28:29.012Z,17.55
2017-02-03T06:29:01.749Z,17.6
2017-02-03T06:29:34.490Z,17.54
2017-02-03T06:30:07.296Z,17.5
2017-02-03T06:30:40.040Z,17.5
2017-02-03T06:31:12.791Z,17.47
2017-02-03T06:31:46.290Z,17.55
2017-02-03T06:32:19.022Z,17.57
2017-02-03T06:32:52.278Z,17.43
2017-02-03T06:33:25.014Z,17.58
2017-02-03T06:33:59.397Z,17.49
2017-02-03T06:34:32.811Z,17.54
2017-02-03T06:35:05.554Z,17.54
2017-02-03T06:35:38.316Z,17.58
2017-02-03T06:36:11.859Z,17.55
2017-02-03T06:36:45.296Z,17.5
2017-02-03T06:37:18.082Z,17.47
2017-02-03T06:37:50.844Z,17.58
2017-02-03T06:38:23.572Z,17.5
2017-02-03T06:38:56.303Z,17.54
2017-02-03T06:39:29.043Z,17.55
2017-02-03T06:40:01.807Z,17.55
2017-02-03T06:40:34.535Z,17.5
2017-02-03T06:41:07.848Z,17.49
2017-02-03T06:41:40.571Z,17.5
2017-02-03T06:42:13.305Z,17.55
2017-02-03T06:42:46.031Z,17.57
2017-02-03T06:43:18.771Z,17.5
2017-02-03T06:43:51.524Z,17.52
2017-02-03T06:44:24.253Z,17.49
2017-02-03T06:44:56.987Z,17.57
2017-02-03T06:45:29.725Z,17.46
2017-02-03T06:46:02.469Z,17.54
2017-02-03T06:46:35.207Z,17.6
2017-02-03T06:47:07.952Z,17.54
2017-02-03T06:47:42.784Z,17.49
2017-02-03T06:48:15.514Z,17.55
2017-02-03T06:48:48.248Z,17.52
2017-02-03T06:49:21.007Z,17.55
2017-02-03T06:49:54.449Z,17.54
2017-02-03T06:50:27.182Z,17.45
2017-02-03T06:51:01.190Z,17.54
2017-02-03T06:51:35.344Z,17.47
2017-02-03T06:52:09.605Z,17.47
2017-02-03T06:52:43.784Z,17.5
2017-02-03T06:53:17.746Z,17.4
2017-02-03T06:53:50.496Z,17.54
2017-02-03T06:54:23.238Z,17.54
2017-02-03T06:54:55.971Z,17.5
2017-02-03T06:55:29.284Z,17.55
2017-02-03T06:56:02.289Z,17.54
2017-02-03T06:56:35.023Z,17.54
2017-02-03T06:57:07.759Z,17.5
2017-02-03T06:57:40.476Z,17.52
2017-02-03T06:58:13.195Z,17.45
2017-02-03T06:58:45.927Z,17.52
2017-02-03T06:59:18.658Z,17.54
2017-02-03T06:59:51.396Z,17.54
2017-02-03T07:00:24.839Z,17.49
2017-02-03T07:00:57.565Z,17.5
2017-02-03T07:01:30.338Z,17.54
2017-02-03T07:02:03.084Z,17.6
2017-02-03T07:02:35.822Z,17.58
2017-02-03T07:03:08.796Z,17.58
2017-02-03T07:03:41.855Z,17.57
2017-02-03T07:04:14.778Z,17.52